createdAt,value
2023-03-31T00:05:11.288Z,18.65
2023-03-31T00:07:38.931Z,14.48
2023-03-31T00:10:17.290Z,10.63
2023-03-31T00:12:46.709Z,16.15
2023-03-31T00:15:14.740Z,17.27
2023-03-31T00:17:43.764Z,14.55
2023-03-31T00:20:12.699Z,14.15
2023-03-31T00:22:48.489Z,8.25
2023-03-31T00:25:17.422Z,16.20
2023-03-31T00:27:45.793Z,20.00
2023-03-31T00:30:14.855Z,16.13
2023-03-31T00:32:42.957Z,19.30
2023-03-31T00:35:10.701Z,16.65
2023-03-31T00:37:38.924Z,17.33
2023-03-31T00:40:10.593Z,10.02
2023-03-31T00:42:43.143Z,13.93
2023-03-31T00:45:18.471Z,16.83
2023-03-31T00:47:57.903Z,11.05
2023-03-31T00:50:29.284Z,16.05
2023-03-31T00:52:59.700Z,19.52
2023-03-31T00:55:31.893Z,13.55
2023-03-31T00:58:02.363Z,17.83
2023-03-31T01:00:31.019Z,13.88
2023-03-31T01:03:03.977Z,20.48
2023-03-31T01:05:45.245Z,14.20
2023-03-31T01:08:13.734Z,23.38
2023-03-31T01:10:56.033Z,12.30
2023-03-31T01:13:24.924Z,16.65
2023-03-31T01:15:55.240Z,15.48
2023-03-31T01:18:24.129Z,12.32
2023-03-31T01:20:58.621Z,14.90
2023-03-31T01:23:55.190Z,14.38
2023-03-31T01:26:23.684Z,11.23
2023-03-31T01:29:00.413Z,18.67
2023-03-31T01:31:34.330Z,22.05
2023-03-31T01:34:08.276Z,14.77
2023-03-31T01:36:49.610Z,17.33
2023-03-31T01:39:37.027Z,14.73
2023-03-31T01:42:06.351Z,11.00
2023-03-31T01:44:53.237Z,12.18
2023-03-31T01:47:26.157Z,18.55
2023-03-31T01:49:54.772Z,15.07
2023-03-31T01:52:25.213Z,17.65
2023-03-31T01:57:24.860Z,19.08
2023-03-31T02:00:19.046Z,20.13
2023-03-31T02:03:05.365Z,20.00
2023-03-31T02:05:47.498Z,15.73
2023-03-31T02:08:17.893Z,16.20
2023-03-31T02:10:46.600Z,16.45
2023-03-31T02:13:16.505Z,15.63
2023-03-31T02:15:47.577Z,25.77
2023-03-31T02:18:19.117Z,20.13
2023-03-31T02:20:49.178Z,18.25
2023-03-31T02:23:18.199Z,16.15
2023-03-31T02:25:49.591Z,19.13
2023-03-31T02:28:20.837Z,14.43
2023-03-31T02:31:01.677Z,19.13
2023-03-31T02:35:59.094Z,20.20
2023-03-31T02:38:27.915Z,16.48
2023-03-31T02:40:55.713Z,15.50
2023-03-31T02:43:26.916Z,18.85
2023-03-31T02:45:56.588Z,16.52
2023-03-31T02:48:37.291Z,18.77
2023-03-31T02:53:36.976Z,18.98
2023-03-31T02:56:07.936Z,16.70
2023-03-31T02:58:42.694Z,15.93
2023-03-31T03:01:25.002Z,20.42
2023-03-31T03:03:59.468Z,13.48
2023-03-31T03:06:39.997Z,17.42
2023-03-31T03:09:49.177Z,17.88
2023-03-31T03:12:26.549Z,19.23
2023-03-31T03:15:09.992Z,24.88
2023-03-31T03:17:46.012Z,13.90
2023-03-31T03:20:14.293Z,25.92
2023-03-31T03:22:43.027Z,17.15
2023-03-31T03:25:12.838Z,17.42
2023-03-31T03:27:41.061Z,21.83
2023-03-31T03:30:10.733Z,25.88
2023-03-31T03:32:38.979Z,24.88
2023-03-31T03:35:07.754Z,25.67
2023-03-31T03:37:35.622Z,25.10
2023-03-31T03:40:04.027Z,26.33
2023-03-31T03:42:34.009Z,17.75
2023-03-31T03:45:01.867Z,22.95
2023-03-31T03:47:31.614Z,15.07
2023-03-31T03:49:59.720Z,22.35
2023-03-31T03:52:27.677Z,26.55
2023-03-31T03:54:56.084Z,25.45
2023-03-31T03:57:27.389Z,31.95
2023-03-31T03:59:57.954Z,24.15
2023-03-31T04:02:28.970Z,27.40
2023-03-31T04:04:58.280Z,23.23
2023-03-31T04:07:25.946Z,24.70
2023-03-31T04:09:57.042Z,25.38
2023-03-31T04:12:27.835Z,26.13
2023-03-31T04:14:56.101Z,23.25
2023-03-31T04:17:33.297Z,20.52
2023-03-31T04:20:10.282Z,21.45
2023-03-31T04:22:41.781Z,25.73
2023-03-31T04:25:16.816Z,18.83
2023-03-31T04:27:47.009Z,21.35
2023-03-31T04:30:25.714Z,30.73
2023-03-31T04:32:55.593Z,22.45
2023-03-31T04:35:26.077Z,21.55
2023-03-31T04:37:59.358Z,19.83
2023-03-31T04:40:27.325Z,17.45
2023-03-31T04:42:58.029Z,24.45
2023-03-31T04:45:26.938Z,22.02
2023-03-31T04:47:57.775Z,17.10
2023-03-31T04:50:26.092Z,20.92
2023-03-31T04:52:55.436Z,23.40
2023-03-31T04:55:23.678Z,23.27
2023-03-31T04:57:53.227Z,22.85
2023-03-31T05:00:21.572Z,19.98
2023-03-31T05:02:49.344Z,20.98
2023-03-31T05:05:17.240Z,20.15
2023-03-31T05:07:45.318Z,20.08
2023-03-31T05:10:13.065Z,24.77
2023-03-31T05:12:40.805Z,27.80
2023-03-31T05:15:09.260Z,20.88
2023-03-31T05:17:37.062Z,20.80
2023-03-31T05:20:06.996Z,14.80
2023-03-31T05:22:37.662Z,22.35
2023-03-31T05:25:06.834Z,19.30
2023-03-31T05:27:35.759Z,19.58
2023-03-31T05:30:04.373Z,19.98
2023-03-31T05:32:32.177Z,17.52
2023-03-31T05:35:00.294Z,18.45
2023-03-31T05:37:29.354Z,16.42
2023-03-31T05:39:57.402Z,24.98
2023-03-31T05:42:25.693Z,13.93
2023-03-31T05:44:57.965Z,17.75
2023-03-31T05:47:27.430Z,16.25
2023-03-31T05:50:08.043Z,15.70
2023-03-31T05:52:37.164Z,24.77
2023-03-31T05:55:06.429Z,17.33
2023-03-31T05:57:34.162Z,20.80
2023-03-31T06:00:02.261Z,16.17
2023-03-31T06:02:32.144Z,16.60
2023-03-31T06:05:00.312Z,9.98
2023-03-31T06:07:27.938Z,15.80
2023-03-31T06:09:55.922Z,10.80
2023-03-31T06:12:26.845Z,15.00
2023-03-31T06:14:55.414Z,9.63
2023-03-31T06:17:24.693Z,11.68
2023-03-31T06:19:55.322Z,12.07
2023-03-31T06:22:30.497Z,13.40
2023-03-31T06:25:02.375Z,8.52
2023-03-31T06:27:31.530Z,9.32
2023-03-31T06:29:59.737Z,14.32
2023-03-31T06:32:27.771Z,7.40
2023-03-31T06:34:56.147Z,12.60
2023-03-31T06:37:25.435Z,16.27
2023-03-31T06:39:53.676Z,14.57
2023-03-31T06:42:21.473Z,13.40
2023-03-31T06:44:49.334Z,12.15
2023-03-31T06:47:17.271Z,10.82
2023-03-31T06:49:45.795Z,15.63
2023-03-31T06:52:14.896Z,16.40
2023-03-31T06:54:43.395Z,8.63
2023-03-31T06:57:11.266Z,12.20
2023-03-31T06:59:39.181Z,12.07
2023-03-31T07:02:08.335Z,13.73
2023-03-31T07:04:36.044Z,11.77
2023-03-31T07:07:03.879Z,17.20
2023-03-31T07:09:31.669Z,12.30
2023-03-31T07:11:59.530Z,13.15
2023-03-31T07:14:27.559Z,11.77
2023-03-31T07:16:56.284Z,9.13
2023-03-31T07:19:26.371Z,15.45
2023-03-31T07:21:56.825Z,14.48
2023-03-31T07:24:27.260Z,10.95
2023-03-31T07:26:56.155Z,15.70
2023-03-31T07:29:28.070Z,13.85
2023-03-31T07:31:56.613Z,10.35
2023-03-31T07:34:26.068Z,12.95
2023-03-31T07:36:56.493Z,9.98
2023-03-31T07:39:25.853Z,10.63
2023-03-31T07:41:56.733Z,7.97
2023-03-31T07:44:25.687Z,14.45
2023-03-31T07:46:56.451Z,9.00
2023-03-31T07:49:24.837Z,9.85
2023-03-31T07:51:53.873Z,6.72
2023-03-31T07:54:21.830Z,11.20
2023-03-31T07:56:49.444Z,9.80
2023-03-31T07:59:17.429Z,11.63
2023-03-31T08:01:46.978Z,17.02
2023-03-31T08:04:15.724Z,11.73
2023-03-31T08:06:43.332Z,13.00
2023-03-31T08:09:11.288Z,13.68
2023-03-31T08:11:39.671Z,12.90
2023-03-31T08:14:07.397Z,18.60
2023-03-31T08:16:35.381Z,12.65
2023-03-31T08:19:03.396Z,21.70
2023-03-31T08:21:32.427Z,17.58
2023-03-31T08:24:00.497Z,15.88
2023-03-31T08:26:28.528Z,13.82
2023-03-31T08:28:59.322Z,14.30
2023-03-31T08:31:29.427Z,15.02
2023-03-31T08:33:57.580Z,29.60
2023-03-31T08:36:26.288Z,13.30
2023-03-31T08:38:57.613Z,20.70
2023-03-31T08:41:39.942Z,22.45
2023-03-31T08:44:26.853Z,21.00
2023-03-31T08:46:57.579Z,27.08
2023-03-31T08:49:30.593Z,20.88
2023-03-31T08:52:03.904Z,25.48
2023-03-31T08:54:40.736Z,24.40
2023-03-31T08:57:25.010Z,19.85
2023-03-31T08:59:59.916Z,26.20
2023-03-31T09:02:42.484Z,23.90
2023-03-31T09:05:32.186Z,25.83
2023-03-31T09:08:06.638Z,26.23
2023-03-31T09:10:37.492Z,25.48
2023-03-31T09:13:24.369Z,22.10
2023-03-31T09:16:06.121Z,28.45
2023-03-31T09:18:38.576Z,20.23
2023-03-31T09:21:26.252Z,23.67
2023-03-31T09:24:06.803Z,24.17
2023-03-31T09:26:35.019Z,27.02
2023-03-31T09:29:04.950Z,28.95
2023-03-31T09:31:32.857Z,21.08
2023-03-31T09:34:11.491Z,34.83
2023-03-31T09:36:39.173Z,24.02
2023-03-31T09:39:07.376Z,25.17
2023-03-31T09:41:34.976Z,30.88
2023-03-31T09:44:03.129Z,25.60
2023-03-31T09:46:39.464Z,26.33
2023-03-31T09:49:18.822Z,31.00
2023-03-31T09:51:47.865Z,21.25
2023-03-31T09:54:48.138Z,20.90
2023-03-31T09:57:27.059Z,21.20
2023-03-31T10:00:05.487Z,22.75
2023-03-31T10:02:41.860Z,26.00
2023-03-31T10:05:28.349Z,19.73
2023-03-31T10:08:13.354Z,24.77
2023-03-31T10:10:45.988Z,18.95
2023-03-31T10:13:16.015Z,18.60
2023-03-31T10:15:44.357Z,22.38
2023-03-31T10:18:30.525Z,22.20
2023-03-31T10:20:59.514Z,26.25
2023-03-31T10:23:33.073Z,20.50
2023-03-31T10:26:01.830Z,21.27
2023-03-31T10:28:37.700Z,18.92
2023-03-31T10:31:06.501Z,22.42
2023-03-31T10:33:35.333Z,25.40
2023-03-31T10:36:09.314Z,20.65
2023-03-31T10:38:40.684Z,20.67
2023-03-31T10:41:08.954Z,23.65
2023-03-31T10:43:41.857Z,19.67
2023-03-31T10:46:10.901Z,22.17
2023-03-31T10:48:39.992Z,24.60
2023-03-31T10:51:14.964Z,21.77
2023-03-31T10:53:46.766Z,19.02
2023-03-31T10:56:36.433Z,17.77
2023-03-31T10:59:23.702Z,14.48
2023-03-31T11:02:14.992Z,24.33
2023-03-31T11:04:50.637Z,15.13
2023-03-31T11:07:27.743Z,21.33
2023-03-31T11:10:04.409Z,17.67
2023-03-31T11:12:38.501Z,15.48
2023-03-31T11:15:10.388Z,24.95
2023-03-31T11:18:01.697Z,17.45
2023-03-31T11:20:38.065Z,13.77
2023-03-31T11:23:16.010Z,13.15
2023-03-31T11:25:48.342Z,18.20
2023-03-31T11:28:20.451Z,14.10
2023-03-31T11:30:54.960Z,16.60
2023-03-31T11:33:55.425Z,23.40
2023-03-31T11:36:42.136Z,18.58
2023-03-31T11:39:29.120Z,18.33
2023-03-31T11:41:59.413Z,18.48
2023-03-31T11:44:29.358Z,12.38
2023-03-31T11:47:03.093Z,14.77
2023-03-31T11:49:38.603Z,21.17
2023-03-31T11:52:10.191Z,17.10
2023-03-31T11:55:11.311Z,20.08
2023-03-31T11:58:05.899Z,18.40
2023-03-31T12:00:43.831Z,18.15
2023-03-31T12:03:17.480Z,17.88
2023-03-31T12:05:55.935Z,16.75
2023-03-31T12:08:24.912Z,20.50
2023-03-31T12:10:55.302Z,14.80
2023-03-31T12:13:33.139Z,17.60
2023-03-31T12:16:13.262Z,15.13
2023-03-31T12:19:01.578Z,18.02
2023-03-31T12:21:30.560Z,18.75
2023-03-31T12:23:58.340Z,20.60
2023-03-31T12:26:36.528Z,18.90
2023-03-31T12:29:07.272Z,27.75
2023-03-31T12:31:40.862Z,16.85
2023-03-31T12:34:13.501Z,18.17
2023-03-31T12:36:58.063Z,17.23
2023-03-31T12:39:37.123Z,19.60
2023-03-31T12:42:04.965Z,12.85
2023-03-31T12:44:44.948Z,12.38
2023-03-31T12:47:20.250Z,10.30
2023-03-31T12:49:57.372Z,8.73
2023-03-31T12:52:43.657Z,9.60
2023-03-31T12:55:38.851Z,14.35
2023-03-31T12:58:35.191Z,11.70
2023-03-31T13:01:16.334Z,11.48
2023-03-31T13:03:47.449Z,13.30
2023-03-31T13:06:30.672Z,6.78
2023-03-31T13:08:59.515Z,9.40
2023-03-31T13:11:36.912Z,11.30
2023-03-31T13:14:15.450Z,11.15
2023-03-31T13:16:50.289Z,12.63
2023-03-31T13:19:41.188Z,14.35
2023-03-31T13:22:29.033Z,13.52
2023-03-31T13:25:16.725Z,13.23
2023-03-31T13:27:55.787Z,12.85
2023-03-31T13:30:43.515Z,12.80
2023-03-31T13:33:11.282Z,11.70
2023-03-31T13:35:41.329Z,13.75
2023-03-31T13:38:28.001Z,10.93
2023-03-31T13:40:56.082Z,13.15
2023-03-31T13:43:47.376Z,16.42
2023-03-31T13:46:34.832Z,21.73
2023-03-31T13:49:16.878Z,12.60
2023-03-31T13:52:03.733Z,19.95
2023-03-31T13:54:50.213Z,13.02
2023-03-31T13:57:45.432Z,17.05
2023-03-31T14:00:32.646Z,14.40
2023-03-31T14:03:07.852Z,11.38
2023-03-31T14:05:44.825Z,17.65
2023-03-31T14:08:15.829Z,12.20
2023-03-31T14:10:44.838Z,10.00
2023-03-31T14:13:16.375Z,8.98
2023-03-31T14:15:51.100Z,9.07
2023-03-31T14:18:26.796Z,8.50
2023-03-31T14:21:18.068Z,9.05
2023-03-31T14:23:56.448Z,7.38
2023-03-31T14:26:33.605Z,7.80
2023-03-31T14:29:04.804Z,5.72
2023-03-31T14:31:36.254Z,6.97
2023-03-31T14:34:08.707Z,10.07
2023-03-31T14:36:48.024Z,6.20
2023-03-31T14:39:25.322Z,8.45
2023-03-31T14:41:55.681Z,8.57
2023-03-31T14:44:27.886Z,7.32
2023-03-31T14:46:58.634Z,14.93
2023-03-31T14:49:39.886Z,9.65
2023-03-31T14:52:24.802Z,9.35
2023-03-31T14:54:54.960Z,11.23
2023-03-31T14:59:55.827Z,9.70
2023-03-31T15:02:34.949Z,8.73
2023-03-31T15:05:07.877Z,6.43
2023-03-31T15:07:38.343Z,11.98
2023-03-31T15:10:08.966Z,8.77
2023-03-31T15:12:38.550Z,7.03
2023-03-31T15:15:07.357Z,10.03
2023-03-31T15:17:40.339Z,10.13
2023-03-31T15:20:44.089Z,6.22
2023-03-31T15:23:25.099Z,8.45
2023-03-31T15:25:55.887Z,7.70
2023-03-31T15:28:24.574Z,7.65
2023-03-31T15:31:07.142Z,5.90
2023-03-31T15:33:42.090Z,8.07
2023-03-31T15:36:12.031Z,8.90
2023-03-31T15:38:40.494Z,3.15
2023-03-31T15:44:08.044Z,7.63
2023-03-31T15:46:47.169Z,7.60
2023-03-31T15:49:22.010Z,2.65
2023-03-31T15:51:57.060Z,2.67
2023-03-31T15:54:33.640Z,2.65
2023-03-31T15:57:03.046Z,3.85
2023-03-31T15:59:41.689Z,2.58
2023-03-31T16:02:47.317Z,0.68
2023-03-31T16:08:39.355Z,2.70
2023-03-31T16:11:13.714Z,3.33
2023-03-31T16:13:46.465Z,3.38
2023-03-31T16:16:18.896Z,2.50
2023-03-31T16:18:50.476Z,4.20
2023-03-31T16:21:29.716Z,3.20
2023-03-31T16:23:59.499Z,4.25
2023-03-31T16:26:28.461Z,3.03
2023-03-31T16:28:58.511Z,3.42
2023-03-31T16:31:36.384Z,1.17
2023-03-31T16:34:07.690Z,6.53
2023-03-31T16:36:36.021Z,3.15
2023-03-31T16:39:09.483Z,2.53
2023-03-31T16:41:38.372Z,1.40
2023-03-31T16:44:06.569Z,3.13
2023-03-31T16:46:34.973Z,3.88
2023-03-31T16:49:05.707Z,7.05
2023-03-31T16:51:33.662Z,1.52
2023-03-31T16:54:01.673Z,4.43
2023-03-31T16:56:29.220Z,3.97
2023-03-31T16:58:58.978Z,2.92
2023-03-31T17:01:27.373Z,7.78
2023-03-31T17:03:56.299Z,4.53
2023-03-31T17:06:28.159Z,5.07
2023-03-31T17:08:56.438Z,4.57
2023-03-31T17:11:25.063Z,6.32
2023-03-31T17:13:56.248Z,1.65
2023-03-31T17:16:36.374Z,5.20
2023-03-31T17:19:12.833Z,3.78
2023-03-31T17:21:40.811Z,6.20
2023-03-31T17:24:08.643Z,1.70
2023-03-31T17:26:37.850Z,5.65
2023-03-31T17:29:05.960Z,3.20
2023-03-31T17:31:33.720Z,4.57
2023-03-31T17:34:03.345Z,4.43
2023-03-31T17:36:31.395Z,4.90
2023-03-31T17:39:00.336Z,8.13
2023-03-31T17:41:33.911Z,6.35
2023-03-31T17:44:01.680Z,5.28
2023-03-31T17:46:34.805Z,5.32
2023-03-31T17:49:03.613Z,5.82
2023-03-31T17:51:34.784Z,6.07
2023-03-31T17:54:05.869Z,13.95
2023-03-31T17:56:33.580Z,8.00
2023-03-31T17:59:01.976Z,6.10
2023-03-31T18:01:33.672Z,5.53
2023-03-31T18:07:08.655Z,4.53
2023-03-31T18:09:36.871Z,7.05
2023-03-31T18:12:05.376Z,9.98
2023-03-31T18:14:33.499Z,6.40
2023-03-31T18:17:02.669Z,7.83
2023-03-31T18:19:31.310Z,6.90
2023-03-31T18:21:59.133Z,4.30
2023-03-31T18:24:28.546Z,7.80
2023-03-31T18:26:57.045Z,8.30
2023-03-31T18:29:25.200Z,8.13
2023-03-31T18:31:56.122Z,5.00
2023-03-31T18:34:26.991Z,5.30
2023-03-31T18:37:00.055Z,3.70
2023-03-31T18:39:28.258Z,5.00
2023-03-31T18:41:56.027Z,6.45
2023-03-31T18:44:24.464Z,6.88
2023-03-31T18:46:52.100Z,6.88
2023-03-31T18:49:21.419Z,8.32
2023-03-31T18:51:49.352Z,7.60
2023-03-31T18:54:17.726Z,6.75
2023-03-31T18:56:45.933Z,6.32
2023-03-31T18:59:14.059Z,8.68
2023-03-31T19:01:43.029Z,9.27
2023-03-31T19:04:11.173Z,6.43
2023-03-31T19:06:39.811Z,9.43
2023-03-31T19:09:07.642Z,14.75
2023-03-31T19:11:35.765Z,7.07
2023-03-31T19:14:03.617Z,6.88
2023-03-31T19:16:32.304Z,8.30
2023-03-31T19:19:00.101Z,6.90
2023-03-31T19:21:32.516Z,7.72
2023-03-31T19:24:00.815Z,11.93
2023-03-31T19:26:29.715Z,5.72
2023-03-31T19:28:59.138Z,6.18
2023-03-31T19:31:26.990Z,8.52
2023-03-31T19:33:58.760Z,7.32
2023-03-31T19:36:28.590Z,9.18
2023-03-31T19:38:56.786Z,6.70
2023-03-31T19:41:27.742Z,9.55
2023-03-31T19:43:57.714Z,5.00
2023-03-31T19:46:26.091Z,9.32
2023-03-31T19:48:58.392Z,12.48
2023-03-31T19:51:27.767Z,9.25
2023-03-31T19:53:58.938Z,8.82
2023-03-31T19:56:27.291Z,7.93
2023-03-31T19:58:57.305Z,6.68
2023-03-31T20:01:27.443Z,5.60
2023-03-31T20:03:56.727Z,5.63
2023-03-31T20:06:39.248Z,7.60
2023-03-31T20:09:07.184Z,8.45
2023-03-31T20:11:35.569Z,6.30
2023-03-31T20:14:03.777Z,11.32
2023-03-31T20:16:33.235Z,12.38
2023-03-31T20:19:04.639Z,9.13
2023-03-31T20:21:38.106Z,8.43
2023-03-31T20:24:06.943Z,9.00
2023-03-31T20:26:39.980Z,10.05
2023-03-31T20:29:08.351Z,10.85
2023-03-31T20:31:37.704Z,6.72
2023-03-31T20:34:06.943Z,10.48
2023-03-31T20:36:34.629Z,8.50
2023-03-31T20:39:04.398Z,9.32
2023-03-31T20:41:34.792Z,7.13
2023-03-31T20:44:07.577Z,14.50
2023-03-31T20:46:36.086Z,10.77
2023-03-31T20:49:04.027Z,9.43
2023-03-31T20:51:34.044Z,7.85
2023-03-31T20:54:02.626Z,8.52
2023-03-31T20:56:32.032Z,14.15
2023-03-31T20:59:02.014Z,10.85
2023-03-31T21:01:40.933Z,7.05
2023-03-31T21:04:10.267Z,15.02
2023-03-31T21:06:43.087Z,9.27
2023-03-31T21:09:12.430Z,14.30
2023-03-31T21:11:40.865Z,14.93
2023-03-31T21:14:09.689Z,13.15
2023-03-31T21:16:37.788Z,10.90
2023-03-31T21:19:05.893Z,14.00
2023-03-31T21:21:35.777Z,13.50
2023-03-31T21:24:03.495Z,13.93
2023-03-31T21:26:31.390Z,12.07
2023-03-31T21:29:02.644Z,13.88
2023-03-31T21:31:31.147Z,10.07
2023-03-31T21:34:02.588Z,12.27
2023-03-31T21:36:30.722Z,8.88
2023-03-31T21:38:58.994Z,10.88
2023-03-31T21:41:32.381Z,10.18
2023-03-31T21:44:02.761Z,17.23
2023-03-31T21:46:48.574Z,10.68
2023-03-31T21:49:17.487Z,8.15
2023-03-31T21:51:46.961Z,18.63
2023-03-31T21:54:14.962Z,12.80
2023-03-31T21:56:44.399Z,16.85
2023-03-31T21:59:13.305Z,17.13
2023-03-31T22:01:42.449Z,14.55
2023-03-31T22:04:10.499Z,18.40
2023-03-31T22:06:39.558Z,13.07
2023-03-31T22:09:08.198Z,17.30
2023-03-31T22:11:36.210Z,17.17
2023-03-31T22:14:04.613Z,11.32
2023-03-31T22:16:32.553Z,16.05
2023-03-31T22:19:01.934Z,7.65
2023-03-31T22:21:44.006Z,15.73
2023-03-31T22:24:14.940Z,10.75
2023-03-31T22:26:42.939Z,19.40
2023-03-31T22:29:14.245Z,11.40
2023-03-31T22:31:42.045Z,13.48
2023-03-31T22:34:42.451Z,13.20
2023-03-31T22:37:10.325Z,10.35
2023-03-31T22:39:39.886Z,12.85
2023-03-31T22:42:10.966Z,17.70
2023-03-31T22:44:40.469Z,13.18
2023-03-31T22:47:08.882Z,15.55
2023-03-31T22:49:36.906Z,22.52
2023-03-31T22:52:04.604Z,12.98
2023-03-31T22:54:33.609Z,12.82
2023-03-31T22:57:01.905Z,14.93
2023-03-31T22:59:29.716Z,12.10
2023-03-31T23:01:58.649Z,16.70
2023-03-31T23:04:32.710Z,10.88
2023-03-31T23:07:01.022Z,9.80
2023-03-31T23:09:29.036Z,12.38
2023-03-31T23:12:00.742Z,10.52
2023-03-31T23:14:28.708Z,15.80
2023-03-31T23:16:57.060Z,11.18
2023-03-31T23:19:26.793Z,17.58
2023-03-31T23:21:55.943Z,20.23
2023-03-31T23:24:25.306Z,10.90
2023-03-31T23:26:54.873Z,15.38
2023-03-31T23:29:23.811Z,8.13
2023-03-31T23:31:51.763Z,12.95
2023-03-31T23:34:20.001Z,8.88
2023-03-31T23:36:47.928Z,8.30
2023-03-31T23:39:17.402Z,10.25
2023-03-31T23:41:45.468Z,10.03
2023-03-31T23:44:13.239Z,10.23
2023-03-31T23:46:43.253Z,6.95
2023-03-31T23:49:14.753Z,12.75
2023-03-31T23:51:42.476Z,11.30
2023-03-31T23:54:10.351Z,10.68
2023-03-31T23:56:38.296Z,11.75
2023-03-31T23:59:06.005Z,12.98
